KLUX

Laurens County Airport

Laurens, South Carolina, USA
METAR KLUX 211955Z AUTO 00000KT 10SM CLR 20/06 A3018 RMK AO2
Observed Flight Rules
Jan-21 @ 19:55 UTC (32 minutes ago) Visual Flight Rules
Wind Visibility Clouds
Calm 10 miles
  • Clear skies
Temperatures Readings
Current 20°C / 68°F
Dewpoint 6°C / 43°F
Humidity 40%
Altimeter 30.18" Hg
Pressure 1022 hPa
Elevation 213
METAR KLUX 211955Z AUTO 00000KT 10SM CLR 20/06 A3018 RMK AO2
Observed Flight Rules
Jan-21 @ 19:55 UTC
(32 minutes ago)
VFR
Wind Visibility
Calm 10 miles
Clouds
  • Clear skies
Temperature Dewpoint
20°C / 68°F 6°C / 43°F
Humidity Altimeter Pressure
40% 30.18" Hg 1022 hPa